Central Il Rgnl Arpt at Bloomington-Normal Airport
KBMI : rendu visible

Aérodrome :











RETROUVEZ-NOUS SUR...

 
LOGIN :

S'inscrire | Disclaimer

   EN    FR    IT 

 









Légende :    VFR   VFR Marginal   IFR   IFR Intensif   IFR Très Intensif
Visi : 
Plafond : 
>= 8 km
>= 3000ft
5 à 8 km
1000 à 3000 ft
1500m à 5 km
500 à 1000 ft
800 à 1500m
200 à 500 ft
< 800m
< 200 ft
Symboles :   Orages  Brouillard  Fortes neiges  Fortes précipitations  Vent > 20 kt






- Altitude de l'aérodrome : 871 ft
- Code IATA : BMI


KBMI - Central Il Rgnl Arpt at Bloomington-Normal

DERNIER METAR :
  • 200256Z 29012KT 10SM CLR M13/M16 A3051 RMK AO2 SNE32 SLP350 P0000 60000 T11331156 50005

METARs EXPIRÉS :
  • 200156Z 30010KT 9SM -SN CLR M13/M15 A3051 RMK AO2 SLP352 P0000 T11281150
  • 200129Z 31010KT 9SM -SN SCT015 M13/M15 A3051 RMK AO2 P0000
  • 200056Z 30013KT 9SM -SN OVC015 M12/M15 A3051 RMK AO2 SLP349 P0000 T11221150

TAF KBMI
Valide du 20 à 00h jusqu'au 21 à 00h UTC


192330Z 2000/2024 30014KT P6SM -SN BKN015
FM200100 31011KT P6SM SCT015
FM200600 31008KT P6SM SCT015 SCT200
FM201400 31006KT P6SM BKN100



MET'MAP, la Météo Aéronautique d'un coup d'oeil ! - Copyright ORBIFLY Décembre 2007 - Disclaimer

ORBIFLY MET'MAP TEAM :

Programmation & Développement : Alexandra Zaïnal
Sur une idée originale de : Baudouin d'Aumeries
Assistance à la programmation : Marc-Olivier Méhu
Soutien technique & logistique : Manuel Goepfert

Contact : metmap@orbifly.com




SOURCES & CREDITS :

   NOAA       Earth
Advisory